Terminal Aerodrome Forecast
Issued by NWS

Home | Current Version | Previous Version | Text Only | Print | Product List | Glossary On
Versions: 1 2 3 4 5 6 7 8 9 10 11 12 13 14 15 16 17 18 19 20 21
000
FTUS43 KDLH 232300
TAFHYR
TAF
KHYR 232334Z 2400/2424 02009KT 6SM BR OVC015
      TEMPO 2400/2403 4SM -DZSN OVC009
     FM240300 02006KT 5SM -SN BR OVC005
     FM240800 02005KT 4SM -SN BR OVC004
     FM242000 35004KT P6SM OVC012=

USA.gov is the U.S. government's official web portal to all federal, state and local government web resources and services.